sensor_id;sensor_type;location;lat;lon;timestamp;temperature;humidity
68378;DHT22;55322;48.146;11.516;2023-04-06T00:00:47;-0.13;75.65
68378;DHT22;55322;48.146;11.516;2023-04-06T00:03:12;-0.15;76.08
68378;DHT22;55322;48.146;11.516;2023-04-06T00:05:38;-0.13;75.94
68378;DHT22;55322;48.146;11.516;2023-04-06T00:08:03;-0.11;73.89
68378;DHT22;55322;48.146;11.516;2023-04-06T00:10:29;-0.10;74.54
68378;DHT22;55322;48.146;11.516;2023-04-06T00:12:54;-0.14;74.97
68378;DHT22;55322;48.146;11.516;2023-04-06T00:15:20;-0.18;75.81
68378;DHT22;55322;48.146;11.516;2023-04-06T00:17:46;-0.21;76.52
68378;DHT22;55322;48.146;11.516;2023-04-06T00:20:11;-0.27;76.20
68378;DHT22;55322;48.146;11.516;2023-04-06T00:22:36;-0.28;76.82
68378;DHT22;55322;48.146;11.516;2023-04-06T00:25:02;-0.25;76.31
68378;DHT22;55322;48.146;11.516;2023-04-06T00:27:27;-0.24;76.44
68378;DHT22;55322;48.146;11.516;2023-04-06T00:29:53;-0.25;75.76
68378;DHT22;55322;48.146;11.516;2023-04-06T00:32:18;-0.28;75.94
68378;DHT22;55322;48.146;11.516;2023-04-06T00:34:43;-0.32;76.34
68378;DHT22;55322;48.146;11.516;2023-04-06T00:37:11;-0.35;74.60
68378;DHT22;55322;48.146;11.516;2023-04-06T00:39:36;-0.45;77.06
68378;DHT22;55322;48.146;11.516;2023-04-06T00:42:10;-0.47;78.85
68378;DHT22;55322;48.146;11.516;2023-04-06T00:44:36;-0.55;76.40
68378;DHT22;55322;48.146;11.516;2023-04-06T00:47:02;-0.52;76.81
68378;DHT22;55322;48.146;11.516;2023-04-06T00:49:27;-0.50;76.68
68378;DHT22;55322;48.146;11.516;2023-04-06T00:51:53;-0.45;77.08
68378;DHT22;55322;48.146;11.516;2023-04-06T00:54:18;-0.47;76.77
68378;DHT22;55322;48.146;11.516;2023-04-06T00:56:43;-0.48;76.51
68378;DHT22;55322;48.146;11.516;2023-04-06T00:59:09;-0.48;74.72
68378;DHT22;55322;48.146;11.516;2023-04-06T01:01:36;-0.48;75.83
68378;DHT22;55322;48.146;11.516;2023-04-06T01:04:02;-0.48;77.47
68378;DHT22;55322;48.146;11.516;2023-04-06T01:06:28;-0.50;76.04
68378;DHT22;55322;48.146;11.516;2023-04-06T01:08:53;-0.47;74.75
68378;DHT22;55322;48.146;11.516;2023-04-06T01:11:19;-0.47;75.14
68378;DHT22;55322;48.146;11.516;2023-04-06T01:13:46;-0.48;73.35
68378;DHT22;55322;48.146;11.516;2023-04-06T01:16:11;-0.40;71.39
68378;DHT22;55322;48.146;11.516;2023-04-06T01:18:37;-0.32;71.85
68378;DHT22;55322;48.146;11.516;2023-04-06T01:21:03;-0.32;72.17
68378;DHT22;55322;48.146;11.516;2023-04-06T01:23:28;-0.22;71.72
68378;DHT22;55322;48.146;11.516;2023-04-06T01:25:54;-0.25;72.40
68378;DHT22;55322;48.146;11.516;2023-04-06T01:28:20;-0.28;72.73
68378;DHT22;55322;48.146;11.516;2023-04-06T01:30:45;-0.37;72.97
68378;DHT22;55322;48.146;11.516;2023-04-06T01:33:11;-0.37;73.67
68378;DHT22;55322;48.146;11.516;2023-04-06T01:35:36;-0.41;73.46
68378;DHT22;55322;48.146;11.516;2023-04-06T01:38:02;-0.61;73.39
68378;DHT22;55322;48.146;11.516;2023-04-06T01:40:27;-0.61;76.84
68378;DHT22;55322;48.146;11.516;2023-04-06T01:42:53;-0.62;76.74
68378;DHT22;55322;48.146;11.516;2023-04-06T01:45:18;-0.58;76.99
68378;DHT22;55322;48.146;11.516;2023-04-06T01:47:43;-0.60;74.13
68378;DHT22;55322;48.146;11.516;2023-04-06T01:50:09;-0.60;75.24
68378;DHT22;55322;48.146;11.516;2023-04-06T01:52:35;-0.61;76.08
68378;DHT22;55322;48.146;11.516;2023-04-06T01:55:00;-0.48;73.69
68378;DHT22;55322;48.146;11.516;2023-04-06T01:57:25;-0.48;74.27
68378;DHT22;55322;48.146;11.516;2023-04-06T01:59:51;-0.44;71.67
68378;DHT22;55322;48.146;11.516;2023-04-06T02:02:17;-0.45;71.14
68378;DHT22;55322;48.146;11.516;2023-04-06T02:04:42;-0.35;71.24
68378;DHT22;55322;48.146;11.516;2023-04-06T02:07:08;-0.32;71.47
68378;DHT22;55322;48.146;11.516;2023-04-06T02:09:33;-0.34;72.12
68378;DHT22;55322;48.146;11.516;2023-04-06T02:11:58;-0.38;72.59
68378;DHT22;55322;48.146;11.516;2023-04-06T02:14:25;-0.38;71.81
68378;DHT22;55322;48.146;11.516;2023-04-06T02:16:51;-0.35;72.32
68378;DHT22;55322;48.146;11.516;2023-04-06T02:19:16;-0.37;72.00
68378;DHT22;55322;48.146;11.516;2023-04-06T02:21:42;-0.50;72.33
68378;DHT22;55322;48.146;11.516;2023-04-06T02:24:07;-0.44;72.35
68378;DHT22;55322;48.146;11.516;2023-04-06T02:26:32;-0.48;72.80
68378;DHT22;55322;48.146;11.516;2023-04-06T02:28:58;-0.51;72.55
68378;DHT22;55322;48.146;11.516;2023-04-06T02:31:23;-0.47;72.51
68378;DHT22;55322;48.146;11.516;2023-04-06T02:33:48;-0.58;73.57
68378;DHT22;55322;48.146;11.516;2023-04-06T02:36:14;-0.61;72.90
68378;DHT22;55322;48.146;11.516;2023-04-06T02:38:39;-0.58;73.34
68378;DHT22;55322;48.146;11.516;2023-04-06T02:41:05;-0.64;73.61
68378;DHT22;55322;48.146;11.516;2023-04-06T02:43:30;-0.65;74.49
68378;DHT22;55322;48.146;11.516;2023-04-06T02:45:55;-0.68;75.27
68378;DHT22;55322;48.146;11.516;2023-04-06T02:48:21;-0.64;74.25
68378;DHT22;55322;48.146;11.516;2023-04-06T02:50:46;-0.64;73.61
68378;DHT22;55322;48.146;11.516;2023-04-06T02:53:11;-0.60;73.43
68378;DHT22;55322;48.146;11.516;2023-04-06T02:55:37;-0.60;73.48
68378;DHT22;55322;48.146;11.516;2023-04-06T02:58:02;-0.58;73.09
68378;DHT22;55322;48.146;11.516;2023-04-06T03:00:27;-0.55;73.58
68378;DHT22;55322;48.146;11.516;2023-04-06T03:02:53;-0.57;73.36
68378;DHT22;55322;48.146;11.516;2023-04-06T03:05:18;-0.58;73.82
68378;DHT22;55322;48.146;11.516;2023-04-06T03:07:43;-0.68;74.61
68378;DHT22;55322;48.146;11.516;2023-04-06T03:10:09;-0.66;75.17
68378;DHT22;55322;48.146;11.516;2023-04-06T03:12:35;-0.76;76.16
68378;DHT22;55322;48.146;11.516;2023-04-06T03:15:00;-0.72;75.07
68378;DHT22;55322;48.146;11.516;2023-04-06T03:17:25;-0.73;73.95
68378;DHT22;55322;48.146;11.516;2023-04-06T03:19:51;-0.68;73.72
68378;DHT22;55322;48.146;11.516;2023-04-06T03:22:16;-0.68;73.34
68378;DHT22;55322;48.146;11.516;2023-04-06T03:24:41;-0.62;73.09
68378;DHT22;55322;48.146;11.516;2023-04-06T03:27:07;-0.64;73.88
68378;DHT22;55322;48.146;11.516;2023-04-06T03:29:32;-0.60;73.41
68378;DHT22;55322;48.146;11.516;2023-04-06T03:31:57;-0.57;73.64
68378;DHT22;55322;48.146;11.516;2023-04-06T03:34:23;-0.52;73.09
68378;DHT22;55322;48.146;11.516;2023-04-06T03:36:48;-0.51;73.44
68378;DHT22;55322;48.146;11.516;2023-04-06T03:39:13;-0.51;73.63
68378;DHT22;55322;48.146;11.516;2023-04-06T03:41:39;-0.55;74.09
68378;DHT22;55322;48.146;11.516;2023-04-06T03:44:05;-0.61;74.11
68378;DHT22;55322;48.146;11.516;2023-04-06T03:46:30;-0.61;74.53
68378;DHT22;55322;48.146;11.516;2023-04-06T03:48:56;-0.62;73.89
68378;DHT22;55322;48.146;11.516;2023-04-06T03:51:21;-0.64;74.05
68378;DHT22;55322;48.146;11.516;2023-04-06T03:53:47;-0.58;73.49
68378;DHT22;55322;48.146;11.516;2023-04-06T03:56:12;-0.58;74.30
68378;DHT22;55322;48.146;11.516;2023-04-06T03:58:37;-0.58;73.63
68378;DHT22;55322;48.146;11.516;2023-04-06T04:01:03;-0.61;74.30
68378;DHT22;55322;48.146;11.516;2023-04-06T04:03:28;-0.62;73.85
68378;DHT22;55322;48.146;11.516;2023-04-06T04:05:54;-0.64;74.09
68378;DHT22;55322;48.146;11.516;2023-04-06T04:08:24;-0.62;73.79
68378;DHT22;55322;48.146;11.516;2023-04-06T04:10:49;-0.62;74.08
68378;DHT22;55322;48.146;11.516;2023-04-06T04:13:14;-0.68;73.72
68378;DHT22;55322;48.146;11.516;2023-04-06T04:15:40;-0.68;73.86
68378;DHT22;55322;48.146;11.516;2023-04-06T04:18:05;-0.71;74.13
68378;DHT22;55322;48.146;11.516;2023-04-06T04:20:31;-0.75;74.95
68378;DHT22;55322;48.146;11.516;2023-04-06T04:22:56;-0.86;75.75
68378;DHT22;55322;48.146;11.516;2023-04-06T04:25:22;-0.83;76.03
68378;DHT22;55322;48.146;11.516;2023-04-06T04:27:48;-0.83;74.77
68378;DHT22;55322;48.146;11.516;2023-04-06T04:30:13;-0.82;74.69
68378;DHT22;55322;48.146;11.516;2023-04-06T04:32:39;-0.82;74.53
68378;DHT22;55322;48.146;11.516;2023-04-06T04:35:04;-0.81;74.89
68378;DHT22;55322;48.146;11.516;2023-04-06T04:37:30;-0.75;74.53
68378;DHT22;55322;48.146;11.516;2023-04-06T04:39:55;-0.78;74.56
68378;DHT22;55322;48.146;11.516;2023-04-06T04:42:21;-0.73;74.55
68378;DHT22;55322;48.146;11.516;2023-04-06T04:44:47;-0.71;74.58
68378;DHT22;55322;48.146;11.516;2023-04-06T04:47:12;-0.69;74.36
68378;DHT22;55322;48.146;11.516;2023-04-06T04:49:37;-0.68;74.04
68378;DHT22;55322;48.146;11.516;2023-04-06T04:52:03;-0.62;74.15
68378;DHT22;55322;48.146;11.516;2023-04-06T04:54:28;-0.66;73.86
68378;DHT22;55322;48.146;11.516;2023-04-06T04:56:54;-0.57;74.09
68378;DHT22;55322;48.146;11.516;2023-04-06T04:59:19;-0.55;74.04
68378;DHT22;55322;48.146;11.516;2023-04-06T05:01:44;-0.51;74.44
68378;DHT22;55322;48.146;11.516;2023-04-06T05:04:10;-0.51;74.64
68378;DHT22;55322;48.146;11.516;2023-04-06T05:06:36;-0.51;74.92
68378;DHT22;55322;48.146;11.516;2023-04-06T05:09:01;-0.45;74.98
68378;DHT22;55322;48.146;11.516;2023-04-06T05:11:26;-0.34;74.78
68378;DHT22;55322;48.146;11.516;2023-04-06T05:13:53;-0.28;73.97
68378;DHT22;55322;48.146;11.516;2023-04-06T05:16:18;-0.06;73.23
68378;DHT22;55322;48.146;11.516;2023-04-06T05:18:44;0.09;73.17
68378;DHT22;55322;48.146;11.516;2023-04-06T05:21:11;0.28;72.85
68378;DHT22;55322;48.146;11.516;2023-04-06T05:23:36;0.40;72.12
68378;DHT22;55322;48.146;11.516;2023-04-06T05:26:01;0.53;72.80
68378;DHT22;55322;48.146;11.516;2023-04-06T05:28:27;0.71;71.62
68378;DHT22;55322;48.146;11.516;2023-04-06T05:30:52;0.93;70.79
68378;DHT22;55322;48.146;11.516;2023-04-06T05:33:18;1.09;70.70
68378;DHT22;55322;48.146;11.516;2023-04-06T05:35:43;1.20;69.32
68378;DHT22;55322;48.146;11.516;2023-04-06T05:38:09;1.36;68.93
68378;DHT22;55322;48.146;11.516;2023-04-06T05:40:38;1.47;67.66
68378;DHT22;55322;48.146;11.516;2023-04-06T05:43:06;1.59;68.91
68378;DHT22;55322;48.146;11.516;2023-04-06T05:45:31;1.57;68.11
68378;DHT22;55322;48.146;11.516;2023-04-06T05:47:57;1.66;67.08
68378;DHT22;55322;48.146;11.516;2023-04-06T05:50:22;2.14;66.86
68378;DHT22;55322;48.146;11.516;2023-04-06T05:52:47;2.80;63.86
68378;DHT22;55322;48.146;11.516;2023-04-06T05:55:13;3.45;61.85
68378;DHT22;55322;48.146;11.516;2023-04-06T05:57:38;4.03;59.34
68378;DHT22;55322;48.146;11.516;2023-04-06T06:00:05;4.01;59.29
68378;DHT22;55322;48.146;11.516;2023-04-06T06:02:32;4.25;59.57
68378;DHT22;55322;48.146;11.516;2023-04-06T06:04:57;4.60;58.57
68378;DHT22;55322;48.146;11.516;2023-04-06T06:07:23;5.07;57.46
68378;DHT22;55322;48.146;11.516;2023-04-06T06:09:49;5.30;55.25
68378;DHT22;55322;48.146;11.516;2023-04-06T06:12:14;5.44;53.52
68378;DHT22;55322;48.146;11.516;2023-04-06T06:14:39;5.80;54.58
68378;DHT22;55322;48.146;11.516;2023-04-06T06:17:05;5.89;53.90
68378;DHT22;55322;48.146;11.516;2023-04-06T06:19:30;5.93;54.45
68378;DHT22;55322;48.146;11.516;2023-04-06T06:21:55;6.41;52.74
68378;DHT22;55322;48.146;11.516;2023-04-06T06:24:21;6.40;50.70
68378;DHT22;55322;48.146;11.516;2023-04-06T06:26:46;6.85;50.55
68378;DHT22;55322;48.146;11.516;2023-04-06T06:29:14;7.12;50.58
68378;DHT22;55322;48.146;11.516;2023-04-06T06:31:39;7.07;49.85
68378;DHT22;55322;48.146;11.516;2023-04-06T06:34:05;6.74;49.42
68378;DHT22;55322;48.146;11.516;2023-04-06T06:36:30;6.50;49.49
68378;DHT22;55322;48.146;11.516;2023-04-06T06:38:57;6.13;51.47
68378;DHT22;55322;48.146;11.516;2023-04-06T06:41:23;5.30;52.62
68378;DHT22;55322;48.146;11.516;2023-04-06T06:43:49;5.00;55.76
68378;DHT22;55322;48.146;11.516;2023-04-06T06:46:14;4.77;55.49
68378;DHT22;55322;48.146;11.516;2023-04-06T06:48:39;4.79;56.03
68378;DHT22;55322;48.146;11.516;2023-04-06T06:51:05;4.59;55.15
68378;DHT22;55322;48.146;11.516;2023-04-06T06:53:30;4.64;57.65
68378;DHT22;55322;48.146;11.516;2023-04-06T06:55:55;4.52;55.12
68378;DHT22;55322;48.146;11.516;2023-04-06T06:58:21;4.72;54.63
68378;DHT22;55322;48.146;11.516;2023-04-06T07:00:46;5.04;56.20
68378;DHT22;55322;48.146;11.516;2023-04-06T07:03:12;5.24;54.68
68378;DHT22;55322;48.146;11.516;2023-04-06T07:05:37;5.49;56.06
68378;DHT22;55322;48.146;11.516;2023-04-06T07:08:03;5.63;54.45
68378;DHT22;55322;48.146;11.516;2023-04-06T07:10:28;5.90;54.52
68378;DHT22;55322;48.146;11.516;2023-04-06T07:12:53;5.90;53.29
68378;DHT22;55322;48.146;11.516;2023-04-06T07:15:19;5.98;52.07
68378;DHT22;55322;48.146;11.516;2023-04-06T07:17:44;6.20;53.96
68378;DHT22;55322;48.146;11.516;2023-04-06T07:20:11;6.48;51.90
68378;DHT22;55322;48.146;11.516;2023-04-06T07:22:41;6.64;52.49
68378;DHT22;55322;48.146;11.516;2023-04-06T07:25:07;6.74;52.66
68378;DHT22;55322;48.146;11.516;2023-04-06T07:27:32;6.80;49.90
68378;DHT22;55322;48.146;11.516;2023-04-06T07:29:58;6.67;50.23
68378;DHT22;55322;48.146;11.516;2023-04-06T07:32:23;6.74;51.35
68378;DHT22;55322;48.146;11.516;2023-04-06T07:34:48;7.18;49.46
68378;DHT22;55322;48.146;11.516;2023-04-06T07:37:14;8.05;49.58
68378;DHT22;55322;48.146;11.516;2023-04-06T07:39:39;8.79;44.50
68378;DHT22;55322;48.146;11.516;2023-04-06T07:42:05;9.65;42.55
68378;DHT22;55322;48.146;11.516;2023-04-06T07:44:30;9.42;44.44
68378;DHT22;55322;48.146;11.516;2023-04-06T07:46:56;9.88;44.91
68378;DHT22;55322;48.146;11.516;2023-04-06T07:49:21;10.84;41.90
68378;DHT22;55322;48.146;11.516;2023-04-06T07:51:48;11.27;38.60
68378;DHT22;55322;48.146;11.516;2023-04-06T07:54:13;11.97;38.15
68378;DHT22;55322;48.146;11.516;2023-04-06T07:56:38;12.72;35.48
68378;DHT22;55322;48.146;11.516;2023-04-06T07:59:04;13.18;33.44
68378;DHT22;55322;48.146;11.516;2023-04-06T08:01:29;13.58;32.71
68378;DHT22;55322;48.146;11.516;2023-04-06T08:03:56;13.41;32.63
68378;DHT22;55322;48.146;11.516;2023-04-06T08:06:22;12.63;34.89
68378;DHT22;55322;48.146;11.516;2023-04-06T08:08:47;10.82;35.28
68378;DHT22;55322;48.146;11.516;2023-04-06T08:11:12;10.90;37.74
68378;DHT22;55322;48.146;11.516;2023-04-06T08:13:38;10.60;38.06
68378;DHT22;55322;48.146;11.516;2023-04-06T08:16:03;11.74;37.81
68378;DHT22;55322;48.146;11.516;2023-04-06T08:18:29;11.67;34.22
68378;DHT22;55322;48.146;11.516;2023-04-06T08:20:55;11.04;35.14
68378;DHT22;55322;48.146;11.516;2023-04-06T08:23:21;11.71;35.33
68378;DHT22;55322;48.146;11.516;2023-04-06T08:25:46;10.70;36.99
68378;DHT22;55322;48.146;11.516;2023-04-06T08:28:12;12.15;37.91
68378;DHT22;55322;48.146;11.516;2023-04-06T08:30:40;13.14;36.97
68378;DHT22;55322;48.146;11.516;2023-04-06T08:33:05;13.44;34.92
68378;DHT22;55322;48.146;11.516;2023-04-06T08:35:31;14.23;32.68
68378;DHT22;55322;48.146;11.516;2023-04-06T08:37:57;14.16;32.27
68378;DHT22;55322;48.146;11.516;2023-04-06T08:40:22;12.97;32.39
68378;DHT22;55322;48.146;11.516;2023-04-06T08:42:55;13.21;31.12
68378;DHT22;55322;48.146;11.516;2023-04-06T08:45:21;13.25;30.83
68378;DHT22;55322;48.146;11.516;2023-04-06T08:47:50;14.01;33.35
68378;DHT22;55322;48.146;11.516;2023-04-06T08:50:17;15.34;32.99
68378;DHT22;55322;48.146;11.516;2023-04-06T08:52:44;15.63;28.72
68378;DHT22;55322;48.146;11.516;2023-04-06T08:55:11;14.87;29.94
68378;DHT22;55322;48.146;11.516;2023-04-06T08:57:37;15.32;28.50
68378;DHT22;55322;48.146;11.516;2023-04-06T09:00:04;14.90;29.07
68378;DHT22;55322;48.146;11.516;2023-04-06T09:02:29;15.20;27.40
68378;DHT22;55322;48.146;11.516;2023-04-06T09:04:56;15.07;31.44
68378;DHT22;55322;48.146;11.516;2023-04-06T09:07:21;16.19;27.54
68378;DHT22;55322;48.146;11.516;2023-04-06T09:09:47;16.91;26.32
68378;DHT22;55322;48.146;11.516;2023-04-06T09:12:26;16.73;31.36
68378;DHT22;55322;48.146;11.516;2023-04-06T09:14:52;15.83;29.18
68378;DHT22;55322;48.146;11.516;2023-04-06T09:17:25;16.59;29.52
68378;DHT22;55322;48.146;11.516;2023-04-06T09:19:51;15.14;30.48
68378;DHT22;55322;48.146;11.516;2023-04-06T09:22:17;14.81;29.36
68378;DHT22;55322;48.146;11.516;2023-04-06T09:24:50;16.27;31.07
68378;DHT22;55322;48.146;11.516;2023-04-06T09:27:16;15.86;29.60
68378;DHT22;55322;48.146;11.516;2023-04-06T09:29:42;14.34;28.36
68378;DHT22;55322;48.146;11.516;2023-04-06T09:32:09;16.36;28.22
68378;DHT22;55322;48.146;11.516;2023-04-06T09:34:41;16.47;30.27
68378;DHT22;55322;48.146;11.516;2023-04-06T09:37:17;15.59;25.63
68378;DHT22;55322;48.146;11.516;2023-04-06T09:39:44;15.45;27.92
68378;DHT22;55322;48.146;11.516;2023-04-06T09:42:11;16.68;29.00
68378;DHT22;55322;48.146;11.516;2023-04-06T09:44:37;16.68;28.88
68378;DHT22;55322;48.146;11.516;2023-04-06T09:47:06;16.06;29.59
68378;DHT22;55322;48.146;11.516;2023-04-06T09:49:32;16.61;27.30
68378;DHT22;55322;48.146;11.516;2023-04-06T09:51:59;15.03;25.98
68378;DHT22;55322;48.146;11.516;2023-04-06T09:54:28;13.79;31.02
68378;DHT22;55322;48.146;11.516;2023-04-06T09:59:44;13.07;30.69
68378;DHT22;55322;48.146;11.516;2023-04-06T10:02:25;12.39;34.19
68378;DHT22;55322;48.146;11.516;2023-04-06T10:04:59;13.18;34.51
68378;DHT22;55322;48.146;11.516;2023-04-06T10:07:27;12.93;30.58
68378;DHT22;55322;48.146;11.516;2023-04-06T10:09:53;13.04;36.19
68378;DHT22;55322;48.146;11.516;2023-04-06T10:12:19;13.04;34.30
68378;DHT22;55322;48.146;11.516;2023-04-06T10:14:45;12.43;31.81
68378;DHT22;55322;48.146;11.516;2023-04-06T10:17:10;11.37;35.98
68378;DHT22;55322;48.146;11.516;2023-04-06T10:19:44;12.14;36.87
68378;DHT22;55322;48.146;11.516;2023-04-06T10:22:18;13.07;38.19
68378;DHT22;55322;48.146;11.516;2023-04-06T10:24:47;14.28;33.65
68378;DHT22;55322;48.146;11.516;2023-04-06T10:27:13;15.61;31.11
68378;DHT22;55322;48.146;11.516;2023-04-06T10:29:45;14.90;30.48
68378;DHT22;55322;48.146;11.516;2023-04-06T10:32:11;15.76;29.48
68378;DHT22;55322;48.146;11.516;2023-04-06T10:34:37;16.06;31.84
68378;DHT22;55322;48.146;11.516;2023-04-06T10:37:15;17.25;27.66
68378;DHT22;55322;48.146;11.516;2023-04-06T10:40:01;16.95;27.62
68378;DHT22;55322;48.146;11.516;2023-04-06T10:42:38;17.19;26.60
68378;DHT22;55322;48.146;11.516;2023-04-06T10:45:06;15.34;28.56
68378;DHT22;55322;48.146;11.516;2023-04-06T10:47:41;14.13;29.71
68378;DHT22;55322;48.146;11.516;2023-04-06T10:50:06;13.64;34.70
68378;DHT22;55322;48.146;11.516;2023-04-06T10:52:32;15.12;31.80
68378;DHT22;55322;48.146;11.516;2023-04-06T10:54:57;16.30;31.12
68378;DHT22;55322;48.146;11.516;2023-04-06T10:57:29;17.24;32.51
68378;DHT22;55322;48.146;11.516;2023-04-06T10:59:56;16.20;28.70
68378;DHT22;55322;48.146;11.516;2023-04-06T11:02:21;16.81;29.39
68378;DHT22;55322;48.146;11.516;2023-04-06T11:04:56;16.84;29.75
68378;DHT22;55322;48.146;11.516;2023-04-06T11:07:26;16.85;28.25
68378;DHT22;55322;48.146;11.516;2023-04-06T11:09:52;16.73;27.66
68378;DHT22;55322;48.146;11.516;2023-04-06T11:12:24;17.14;29.57
68378;DHT22;55322;48.146;11.516;2023-04-06T11:14:58;17.07;28.15
68378;DHT22;55322;48.146;11.516;2023-04-06T11:17:29;14.44;31.01
68378;DHT22;55322;48.146;11.516;2023-04-06T11:19:56;14.29;32.99
68378;DHT22;55322;48.146;11.516;2023-04-06T11:22:21;14.46;30.10
68378;DHT22;55322;48.146;11.516;2023-04-06T11:24:47;14.70;34.45
68378;DHT22;55322;48.146;11.516;2023-04-06T11:27:14;13.41;30.54
68378;DHT22;55322;48.146;11.516;2023-04-06T11:29:41;14.36;37.70
68378;DHT22;55322;48.146;11.516;2023-04-06T11:32:07;14.73;31.62
68378;DHT22;55322;48.146;11.516;2023-04-06T11:34:36;15.18;29.64
68378;DHT22;55322;48.146;11.516;2023-04-06T11:37:03;14.81;30.08
68378;DHT22;55322;48.146;11.516;2023-04-06T11:39:38;14.88;31.70
68378;DHT22;55322;48.146;11.516;2023-04-06T11:42:03;14.74;31.70
68378;DHT22;55322;48.146;11.516;2023-04-06T11:44:34;14.84;32.07
68378;DHT22;55322;48.146;11.516;2023-04-06T11:47:01;14.67;31.59
68378;DHT22;55322;48.146;11.516;2023-04-06T11:49:28;12.86;32.28
68378;DHT22;55322;48.146;11.516;2023-04-06T11:51:54;12.94;36.02
68378;DHT22;55322;48.146;11.516;2023-04-06T11:54:32;13.31;35.38
68378;DHT22;55322;48.146;11.516;2023-04-06T11:56:58;14.01;31.33
68378;DHT22;55322;48.146;11.516;2023-04-06T11:59:23;14.87;32.96
68378;DHT22;55322;48.146;11.516;2023-04-06T12:01:49;15.25;33.29
68378;DHT22;55322;48.146;11.516;2023-04-06T12:04:14;14.61;29.71
68378;DHT22;55322;48.146;11.516;2023-04-06T12:06:40;13.95;32.85
68378;DHT22;55322;48.146;11.516;2023-04-06T12:09:05;14.50;29.17
68378;DHT22;55322;48.146;11.516;2023-04-06T12:11:30;14.39;31.11
68378;DHT22;55322;48.146;11.516;2023-04-06T12:13:56;14.66;31.83
68378;DHT22;55322;48.146;11.516;2023-04-06T12:16:21;15.17;28.94
68378;DHT22;55322;48.146;11.516;2023-04-06T12:18:46;15.54;33.71
68378;DHT22;55322;48.146;11.516;2023-04-06T12:21:12;15.72;29.07
68378;DHT22;55322;48.146;11.516;2023-04-06T12:23:37;16.08;29.55
68378;DHT22;55322;48.146;11.516;2023-04-06T12:26:02;16.02;29.77
68378;DHT22;55322;48.146;11.516;2023-04-06T12:28:28;15.75;32.01
68378;DHT22;55322;48.146;11.516;2023-04-06T12:30:55;15.01;30.30
68378;DHT22;55322;48.146;11.516;2023-04-06T12:33:20;13.79;30.00
68378;DHT22;55322;48.146;11.516;2023-04-06T12:35:46;12.06;33.59
68378;DHT22;55322;48.146;11.516;2023-04-06T12:38:12;12.97;35.65
68378;DHT22;55322;48.146;11.516;2023-04-06T12:40:38;12.33;33.41
68378;DHT22;55322;48.146;11.516;2023-04-06T12:43:04;12.59;33.78
68378;DHT22;55322;48.146;11.516;2023-04-06T12:45:30;12.17;33.28
68378;DHT22;55322;48.146;11.516;2023-04-06T12:47:56;11.57;32.72
68378;DHT22;55322;48.146;11.516;2023-04-06T12:50:21;12.19;37.40
68378;DHT22;55322;48.146;11.516;2023-04-06T12:52:47;12.18;37.54
68378;DHT22;55322;48.146;11.516;2023-04-06T12:55:12;12.04;33.39
68378;DHT22;55322;48.146;11.516;2023-04-06T12:57:38;12.66;35.57
68378;DHT22;55322;48.146;11.516;2023-04-06T13:00:04;13.44;35.95
68378;DHT22;55322;48.146;11.516;2023-04-06T13:02:30;13.21;34.94
68378;DHT22;55322;48.146;11.516;2023-04-06T13:04:55;12.60;30.89
68378;DHT22;55322;48.146;11.516;2023-04-06T13:07:21;12.15;36.56
68378;DHT22;55322;48.146;11.516;2023-04-06T13:09:47;12.11;35.33
68378;DHT22;55322;48.146;11.516;2023-04-06T13:12:14;11.54;35.51
68378;DHT22;55322;48.146;11.516;2023-04-06T13:14:40;10.93;35.72
68378;DHT22;55322;48.146;11.516;2023-04-06T13:17:06;11.37;37.07
68378;DHT22;55322;48.146;11.516;2023-04-06T13:19:32;12.22;36.30
68378;DHT22;55322;48.146;11.516;2023-04-06T13:21:57;12.69;37.95
68378;DHT22;55322;48.146;11.516;2023-04-06T13:24:22;13.28;33.87
68378;DHT22;55322;48.146;11.516;2023-04-06T13:26:48;13.53;33.27
68378;DHT22;55322;48.146;11.516;2023-04-06T13:29:14;13.72;34.20
68378;DHT22;55322;48.146;11.516;2023-04-06T13:31:39;14.01;33.38
68378;DHT22;55322;48.146;11.516;2023-04-06T13:34:05;13.27;31.72
68378;DHT22;55322;48.146;11.516;2023-04-06T13:36:31;13.20;30.10
68378;DHT22;55322;48.146;11.516;2023-04-06T13:38:59;11.98;30.88
68378;DHT22;55322;48.146;11.516;2023-04-06T13:41:25;12.39;34.73
68378;DHT22;55322;48.146;11.516;2023-04-06T13:43:51;12.69;33.00
68378;DHT22;55322;48.146;11.516;2023-04-06T13:46:17;13.40;38.30
68378;DHT22;55322;48.146;11.516;2023-04-06T13:48:43;13.71;33.75
68378;DHT22;55322;48.146;11.516;2023-04-06T13:51:12;13.77;33.35
68378;DHT22;55322;48.146;11.516;2023-04-06T13:53:38;12.87;32.71
68378;DHT22;55322;48.146;11.516;2023-04-06T13:56:04;12.69;33.73
68378;DHT22;55322;48.146;11.516;2023-04-06T13:58:29;12.35;34.49
68378;DHT22;55322;48.146;11.516;2023-04-06T14:01:10;12.17;37.92
68378;DHT22;55322;48.146;11.516;2023-04-06T14:03:35;12.55;39.55
68378;DHT22;55322;48.146;11.516;2023-04-06T14:06:08;12.59;34.69
68378;DHT22;55322;48.146;11.516;2023-04-06T14:08:34;12.25;33.14
68378;DHT22;55322;48.146;11.516;2023-04-06T14:11:00;12.26;38.38
68378;DHT22;55322;48.146;11.516;2023-04-06T14:13:25;12.64;34.16
68378;DHT22;55322;48.146;11.516;2023-04-06T14:15:53;12.93;35.98
68378;DHT22;55322;48.146;11.516;2023-04-06T14:18:19;12.79;37.21
68378;DHT22;55322;48.146;11.516;2023-04-06T14:20:44;12.38;34.53
68378;DHT22;55322;48.146;11.516;2023-04-06T14:23:10;11.97;37.54
68378;DHT22;55322;48.146;11.516;2023-04-06T14:25:35;11.55;35.73
68378;DHT22;55322;48.146;11.516;2023-04-06T14:28:01;11.63;35.74
68378;DHT22;55322;48.146;11.516;2023-04-06T14:30:26;11.68;38.63
68378;DHT22;55322;48.146;11.516;2023-04-06T14:32:56;11.53;37.28
68378;DHT22;55322;48.146;11.516;2023-04-06T14:35:22;11.67;34.76
68378;DHT22;55322;48.146;11.516;2023-04-06T14:37:47;11.68;36.06
68378;DHT22;55322;48.146;11.516;2023-04-06T14:40:12;11.94;34.53
68378;DHT22;55322;48.146;11.516;2023-04-06T14:42:38;11.98;35.13
68378;DHT22;55322;48.146;11.516;2023-04-06T14:45:03;12.28;38.01
68378;DHT22;55322;48.146;11.516;2023-04-06T14:47:29;12.46;36.02
68378;DHT22;55322;48.146;11.516;2023-04-06T14:49:54;11.82;34.47
68378;DHT22;55322;48.146;11.516;2023-04-06T14:52:20;11.88;36.59
68378;DHT22;55322;48.146;11.516;2023-04-06T14:54:45;12.05;33.38
68378;DHT22;55322;48.146;11.516;2023-04-06T14:57:10;11.94;35.44
68378;DHT22;55322;48.146;11.516;2023-04-06T14:59:36;12.06;34.89
68378;DHT22;55322;48.146;11.516;2023-04-06T15:02:04;12.29;36.09
68378;DHT22;55322;48.146;11.516;2023-04-06T15:04:29;12.79;32.74
68378;DHT22;55322;48.146;11.516;2023-04-06T15:06:55;12.64;33.70
68378;DHT22;55322;48.146;11.516;2023-04-06T15:09:20;12.38;35.96
68378;DHT22;55322;48.146;11.516;2023-04-06T15:11:46;12.56;32.95
68378;DHT22;55322;48.146;11.516;2023-04-06T15:14:11;12.59;34.08